createdAt,value
2023-02-06T00:02:08.573Z,13.23
2023-02-06T00:04:35.234Z,13.80
2023-02-06T00:07:01.926Z,12.95
2023-02-06T00:09:28.664Z,11.73
2023-02-06T00:11:55.441Z,11.88
2023-02-06T00:14:22.193Z,10.23
2023-02-06T00:16:48.890Z,10.50
2023-02-06T00:19:15.675Z,4.53
2023-02-06T00:21:42.904Z,4.18
2023-02-06T00:24:10.108Z,4.30
2023-02-06T00:26:36.915Z,3.25
2023-02-06T00:29:03.847Z,3.80
2023-02-06T00:31:30.654Z,3.58
2023-02-06T00:33:57.607Z,3.50
2023-02-06T00:36:24.370Z,2.85
2023-02-06T00:38:51.128Z,3.00
2023-02-06T00:41:17.801Z,3.28
2023-02-06T00:43:44.671Z,3.95
2023-02-06T00:46:11.682Z,2.17
2023-02-06T00:48:38.580Z,3.75
2023-02-06T00:51:05.509Z,3.05
2023-02-06T00:53:32.565Z,2.88
2023-02-06T00:55:59.322Z,4.40
2023-02-06T00:58:26.098Z,2.47
2023-02-06T01:00:53.294Z,3.33
2023-02-06T01:03:20.252Z,3.33
2023-02-06T01:05:47.108Z,3.05
2023-02-06T01:08:14.178Z,3.15
2023-02-06T01:10:44.558Z,3.35
2023-02-06T01:13:12.102Z,2.67
2023-02-06T01:15:39.145Z,3.97
2023-02-06T01:18:05.889Z,3.97
2023-02-06T01:20:32.850Z,3.70
2023-02-06T01:23:00.036Z,5.38
2023-02-06T01:25:26.932Z,5.40
2023-02-06T01:27:53.707Z,4.20
2023-02-06T01:30:20.623Z,3.67
2023-02-06T01:32:47.599Z,4.90
2023-02-06T01:35:15.622Z,4.65
2023-02-06T01:37:42.407Z,4.93
2023-02-06T01:40:13.877Z,4.65
2023-02-06T01:42:40.912Z,4.55
2023-02-06T01:45:26.017Z,4.15
2023-02-06T01:47:59.142Z,4.35
2023-02-06T01:50:26.105Z,6.82
2023-02-06T01:52:52.993Z,4.93
2023-02-06T01:55:19.879Z,5.50
2023-02-06T01:57:46.739Z,4.32
2023-02-06T02:00:13.786Z,6.38
2023-02-06T02:02:44.576Z,4.95
2023-02-06T02:05:12.479Z,4.95
2023-02-06T02:07:46.193Z,4.13
2023-02-06T02:10:12.953Z,5.35
2023-02-06T02:12:40.002Z,5.30
2023-02-06T02:15:07.183Z,5.85
2023-02-06T02:17:56.270Z,5.40
2023-02-06T02:20:47.375Z,5.22
2023-02-06T02:23:33.131Z,5.55
2023-02-06T02:25:59.954Z,5.22
2023-02-06T02:28:54.945Z,4.57
2023-02-06T02:31:27.679Z,5.22
2023-02-06T02:34:09.761Z,7.00
2023-02-06T02:36:46.360Z,5.20
2023-02-06T02:39:35.984Z,5.72
2023-02-06T02:42:13.185Z,5.53
2023-02-06T02:44:50.463Z,4.50
2023-02-06T02:47:20.789Z,4.55
2023-02-06T02:49:48.678Z,4.70
2023-02-06T02:52:16.228Z,4.60
2023-02-06T02:54:42.928Z,5.85
2023-02-06T02:57:14.853Z,5.45
2023-02-06T02:59:46.056Z,6.18
2023-02-06T03:02:15.684Z,5.60
2023-02-06T03:04:48.301Z,5.25
2023-02-06T03:07:24.141Z,6.50
2023-02-06T03:10:12.145Z,4.47
2023-02-06T03:13:12.693Z,3.17
2023-02-06T03:15:55.244Z,4.07
2023-02-06T03:18:37.245Z,4.40
2023-02-06T03:21:06.483Z,5.63
2023-02-06T03:23:37.730Z,5.25
2023-02-06T03:26:07.995Z,5.57
2023-02-06T03:28:38.477Z,8.15
2023-02-06T03:31:10.213Z,6.55
2023-02-06T03:33:43.420Z,7.43
2023-02-06T03:36:17.115Z,7.45
2023-02-06T03:38:49.451Z,8.90
2023-02-06T03:41:18.617Z,7.63
2023-02-06T03:43:48.186Z,7.13
2023-02-06T03:46:17.076Z,8.55
2023-02-06T03:48:47.703Z,8.80
2023-02-06T03:51:36.486Z,7.10
2023-02-06T03:54:05.794Z,6.65
2023-02-06T03:56:51.716Z,6.05
2023-02-06T03:59:18.414Z,5.30
2023-02-06T04:01:49.081Z,5.90
2023-02-06T04:04:17.543Z,7.22
2023-02-06T04:06:44.418Z,4.68
2023-02-06T04:09:11.158Z,5.18
2023-02-06T04:11:38.003Z,5.75
2023-02-06T04:14:04.817Z,5.93
2023-02-06T04:16:31.585Z,5.65
2023-02-06T04:18:58.281Z,5.80
2023-02-06T04:21:24.919Z,6.05
2023-02-06T04:23:51.664Z,6.40
2023-02-06T04:26:18.431Z,5.57
2023-02-06T04:28:45.073Z,6.07
2023-02-06T04:31:11.848Z,7.03
2023-02-06T04:33:38.588Z,10.35
2023-02-06T04:36:05.565Z,6.30
2023-02-06T04:38:32.200Z,7.78
2023-02-06T04:41:03.952Z,6.88
2023-02-06T04:43:31.568Z,7.55
2023-02-06T04:45:58.347Z,7.32
2023-02-06T04:48:25.699Z,7.63
2023-02-06T04:50:52.789Z,6.53
2023-02-06T04:53:19.750Z,7.35
2023-02-06T04:55:46.531Z,5.78
2023-02-06T04:58:13.322Z,6.80
2023-02-06T05:00:40.077Z,6.35
2023-02-06T05:03:06.967Z,5.78
2023-02-06T05:05:33.884Z,7.18
2023-02-06T05:08:00.821Z,4.88
2023-02-06T05:10:27.812Z,6.20
2023-02-06T05:12:56.037Z,4.40
2023-02-06T05:15:22.784Z,4.93
2023-02-06T05:17:49.556Z,5.53
2023-02-06T05:20:16.387Z,7.38
2023-02-06T05:22:43.056Z,5.05
2023-02-06T05:25:09.694Z,4.68
2023-02-06T05:27:36.362Z,4.50
2023-02-06T05:30:03.372Z,5.93
2023-02-06T05:32:30.040Z,4.13
2023-02-06T05:34:56.746Z,4.88
2023-02-06T05:37:23.459Z,4.80
2023-02-06T05:39:50.205Z,5.22
2023-02-06T05:42:16.964Z,4.22
2023-02-06T05:44:43.626Z,4.63
2023-02-06T05:47:10.251Z,3.38
2023-02-06T05:49:36.945Z,5.50
2023-02-06T05:52:03.713Z,3.67
2023-02-06T05:54:30.422Z,4.93
2023-02-06T05:56:58.104Z,4.15
2023-02-06T05:59:24.815Z,4.45
2023-02-06T06:01:51.572Z,3.70
2023-02-06T06:04:18.415Z,4.63
2023-02-06T06:06:45.527Z,4.85
2023-02-06T06:09:12.276Z,3.22
2023-02-06T06:11:39.101Z,5.57
2023-02-06T06:14:06.363Z,3.15
2023-02-06T06:16:33.449Z,3.50
2023-02-06T06:19:01.833Z,4.63
2023-02-06T06:21:28.638Z,3.42
2023-02-06T06:23:55.415Z,4.88
2023-02-06T06:26:22.173Z,5.32
2023-02-06T06:28:48.921Z,6.43
2023-02-06T06:31:15.845Z,3.95
2023-02-06T06:33:42.809Z,4.20
2023-02-06T06:36:14.057Z,6.22
2023-02-06T06:38:41.640Z,6.68
2023-02-06T06:41:08.326Z,4.38
2023-02-06T06:43:35.292Z,4.30
2023-02-06T06:46:02.276Z,5.68
2023-02-06T06:48:29.100Z,3.88
2023-02-06T06:50:55.802Z,4.10
2023-02-06T06:53:22.959Z,4.25
2023-02-06T06:55:49.833Z,3.70
2023-02-06T06:58:16.629Z,4.65
2023-02-06T07:00:43.591Z,5.03
2023-02-06T07:03:11.730Z,5.32
2023-02-06T07:05:39.353Z,5.55
2023-02-06T07:08:06.370Z,4.93
2023-02-06T07:10:33.158Z,5.50
2023-02-06T07:13:00.104Z,5.60
2023-02-06T07:15:27.159Z,7.53
2023-02-06T07:17:53.928Z,5.85
2023-02-06T07:20:20.756Z,5.78
2023-02-06T07:22:47.656Z,4.85
2023-02-06T07:25:14.344Z,5.43
2023-02-06T07:27:41.101Z,6.47
2023-02-06T07:30:08.658Z,7.18
2023-02-06T07:32:36.834Z,5.22
2023-02-06T07:35:04.388Z,5.07
2023-02-06T07:37:31.300Z,4.68
2023-02-06T07:39:58.197Z,5.10
2023-02-06T07:42:25.380Z,5.00
2023-02-06T07:44:52.165Z,6.20
2023-02-06T07:47:19.104Z,5.93
2023-02-06T07:49:46.249Z,5.25
2023-02-06T07:52:13.188Z,8.40
2023-02-06T07:54:39.900Z,5.80
2023-02-06T07:57:06.633Z,5.85
2023-02-06T07:59:33.407Z,5.35
2023-02-06T08:02:01.028Z,7.15
2023-02-06T08:04:29.461Z,7.22
2023-02-06T08:06:56.269Z,6.53
2023-02-06T08:09:22.961Z,5.75
2023-02-06T08:11:49.638Z,5.45
2023-02-06T08:14:16.369Z,8.55
2023-02-06T08:16:43.362Z,5.28
2023-02-06T08:19:12.386Z,6.75
2023-02-06T08:21:39.116Z,7.57
2023-02-06T08:24:06.230Z,7.97
2023-02-06T08:26:33.735Z,8.00
2023-02-06T08:29:03.237Z,5.40
2023-02-06T08:31:33.388Z,5.68
2023-02-06T08:34:00.677Z,4.32
2023-02-06T08:36:31.981Z,5.85
2023-02-06T08:38:59.954Z,6.63
2023-02-06T08:41:29.731Z,3.97
2023-02-06T08:43:59.516Z,3.85
2023-02-06T08:46:29.141Z,5.40
2023-02-06T08:48:57.334Z,4.47
2023-02-06T08:51:27.962Z,7.13
2023-02-06T08:54:06.192Z,4.30
2023-02-06T08:59:00.986Z,3.67
2023-02-06T09:01:29.581Z,4.43
2023-02-06T09:04:06.470Z,5.82
2023-02-06T09:06:35.435Z,3.97
2023-02-06T09:09:02.869Z,5.82
2023-02-06T09:11:29.940Z,9.48
2023-02-06T09:13:59.336Z,8.85
2023-02-06T09:16:27.573Z,7.15
2023-02-06T09:18:55.528Z,7.68
2023-02-06T09:21:26.353Z,7.97
2023-02-06T09:23:55.795Z,6.18
2023-02-06T09:26:24.579Z,6.80
2023-02-06T09:28:59.232Z,8.57
2023-02-06T09:31:27.478Z,7.55
2023-02-06T09:33:54.434Z,6.25
2023-02-06T09:36:21.704Z,6.88
2023-02-06T09:38:51.845Z,5.72
2023-02-06T09:41:26.377Z,5.60
2023-02-06T09:44:16.829Z,6.28
2023-02-06T09:46:57.389Z,5.13
2023-02-06T09:49:51.222Z,5.47
2023-02-06T09:52:50.061Z,5.15
2023-02-06T09:55:39.140Z,6.38
2023-02-06T09:58:36.287Z,6.05
2023-02-06T10:01:16.364Z,5.18
2023-02-06T10:04:05.823Z,5.00
2023-02-06T10:06:53.027Z,6.72
2023-02-06T10:09:37.108Z,5.53
2023-02-06T10:12:16.139Z,6.05
2023-02-06T10:14:54.110Z,5.57
2023-02-06T10:17:26.542Z,7.38
2023-02-06T10:19:58.148Z,6.53
2023-02-06T10:22:43.204Z,6.65
2023-02-06T10:25:29.043Z,8.15
2023-02-06T10:28:21.187Z,6.38
2023-02-06T10:31:14.789Z,5.50
2023-02-06T10:34:00.102Z,4.80
2023-02-06T10:36:39.854Z,6.05
2023-02-06T10:39:31.196Z,6.18
2023-02-06T10:42:08.149Z,5.07
2023-02-06T10:44:50.838Z,5.45
2023-02-06T10:47:30.624Z,5.70
2023-02-06T10:50:03.049Z,5.45
2023-02-06T10:52:36.054Z,4.72
2023-02-06T10:55:29.554Z,6.47
2023-02-06T10:58:22.536Z,8.73
2023-02-06T11:00:50.970Z,6.13
2023-02-06T11:03:25.295Z,5.93
2023-02-06T11:05:52.968Z,5.72
2023-02-06T11:08:31.577Z,6.45
2023-02-06T11:10:58.641Z,6.88
2023-02-06T11:13:33.750Z,4.55
2023-02-06T11:16:08.346Z,8.35
2023-02-06T11:18:39.163Z,5.55
2023-02-06T11:21:08.466Z,6.13
2023-02-06T11:23:37.671Z,7.03
2023-02-06T11:26:14.840Z,4.85
2023-02-06T11:28:53.897Z,6.45
2023-02-06T11:31:39.330Z,5.43
2023-02-06T11:34:06.507Z,6.50
2023-02-06T11:36:35.924Z,5.90
2023-02-06T11:39:21.926Z,8.35
2023-02-06T11:41:58.487Z,6.18
2023-02-06T11:44:26.647Z,5.80
2023-02-06T11:46:53.366Z,5.10
2023-02-06T11:49:29.496Z,6.10
2023-02-06T11:52:00.844Z,5.78
2023-02-06T11:54:35.107Z,8.05
2023-02-06T11:57:17.949Z,7.03
2023-02-06T11:59:55.643Z,5.85
2023-02-06T12:02:31.876Z,4.43
2023-02-06T12:05:10.715Z,7.65
2023-02-06T12:07:42.928Z,5.50
2023-02-06T12:10:18.195Z,9.05
2023-02-06T12:13:00.402Z,5.88
2023-02-06T12:15:47.015Z,5.18
2023-02-06T12:18:42.251Z,9.02
2023-02-06T12:21:21.344Z,8.73
2023-02-06T12:23:54.692Z,9.20
2023-02-06T12:26:24.476Z,7.18
2023-02-06T12:29:01.141Z,7.13
2023-02-06T12:31:40.108Z,8.40
2023-02-06T12:34:15.586Z,6.70
2023-02-06T12:37:14.316Z,7.57
2023-02-06T12:39:43.368Z,7.38
2023-02-06T12:42:32.469Z,6.88
2023-02-06T12:45:07.549Z,7.47
2023-02-06T12:47:52.613Z,7.72
2023-02-06T12:50:27.992Z,9.30
2023-02-06T12:53:03.677Z,9.98
2023-02-06T12:55:36.119Z,10.55
2023-02-06T12:58:04.652Z,7.25
2023-02-06T13:00:40.402Z,5.82
2023-02-06T13:03:34.740Z,5.68
2023-02-06T13:06:20.021Z,8.73
2023-02-06T13:09:02.916Z,7.93
2023-02-06T13:11:39.146Z,6.40
2023-02-06T13:14:27.667Z,5.13
2023-02-06T13:17:11.817Z,7.13
2023-02-06T13:19:41.848Z,4.40
2023-02-06T13:22:08.489Z,6.20
2023-02-06T13:24:39.078Z,8.15
2023-02-06T13:27:08.712Z,8.23
2023-02-06T13:29:37.738Z,6.07
2023-02-06T13:32:10.375Z,5.25
2023-02-06T13:34:42.229Z,5.05
2023-02-06T13:37:38.512Z,7.55
2023-02-06T13:40:23.468Z,4.50
2023-02-06T13:43:13.825Z,4.68
2023-02-06T13:46:01.763Z,4.32
2023-02-06T13:48:34.475Z,4.95
2023-02-06T13:51:26.251Z,6.32
2023-02-06T13:54:24.011Z,7.13
2023-02-06T13:57:27.771Z,6.50
2023-02-06T13:59:58.537Z,4.40
2023-02-06T14:02:36.350Z,4.55
2023-02-06T14:05:05.851Z,4.85
2023-02-06T14:07:53.942Z,5.57
2023-02-06T14:11:11.382Z,6.03
2023-02-06T14:13:50.220Z,4.72
2023-02-06T14:16:52.431Z,4.75
2023-02-06T14:19:28.047Z,7.20
2023-02-06T14:22:19.015Z,5.95
2023-02-06T14:24:53.375Z,7.35
2023-02-06T14:27:38.690Z,7.25
2023-02-06T14:30:11.274Z,5.45
2023-02-06T14:32:59.796Z,4.15
2023-02-06T14:35:57.405Z,6.70
2023-02-06T14:38:48.444Z,6.18
2023-02-06T14:41:16.264Z,4.85
2023-02-06T14:43:45.261Z,4.85
2023-02-06T14:46:15.922Z,6.40
2023-02-06T14:48:49.640Z,6.28
2023-02-06T14:51:37.666Z,5.78
2023-02-06T14:54:06.798Z,5.90
2023-02-06T14:56:36.651Z,5.75
2023-02-06T14:59:14.018Z,6.57
2023-02-06T15:01:42.947Z,6.75
2023-02-06T15:04:15.601Z,6.22
2023-02-06T15:06:50.110Z,4.95
2023-02-06T15:09:29.085Z,6.65
2023-02-06T15:11:58.480Z,6.65
2023-02-06T15:14:28.553Z,6.65
2023-02-06T15:17:02.827Z,4.72
2023-02-06T15:19:35.434Z,6.88
2023-02-06T15:22:05.936Z,5.20
2023-02-06T15:24:38.648Z,4.95
2023-02-06T15:27:10.221Z,8.02
2023-02-06T15:29:37.325Z,5.57
2023-02-06T15:32:07.825Z,5.63
2023-02-06T15:34:34.800Z,3.95
2023-02-06T15:37:19.833Z,4.60
2023-02-06T15:39:47.298Z,7.10
2023-02-06T15:42:14.349Z,6.05
2023-02-06T15:44:41.857Z,5.63
2023-02-06T15:47:13.532Z,5.80
2023-02-06T15:49:46.642Z,5.63
2023-02-06T15:52:30.718Z,6.53
2023-02-06T15:54:59.561Z,5.55
2023-02-06T15:57:31.775Z,5.95
2023-02-06T15:59:58.991Z,6.90
2023-02-06T16:02:37.632Z,4.20
2023-02-06T16:05:05.952Z,5.63
2023-02-06T16:07:37.938Z,7.35
2023-02-06T16:10:07.711Z,7.00
2023-02-06T16:12:41.977Z,8.52
2023-02-06T16:15:27.572Z,6.22
2023-02-06T16:17:55.352Z,5.22
2023-02-06T16:20:40.103Z,5.43
2023-02-06T16:23:27.528Z,4.45
2023-02-06T16:26:02.280Z,6.30
2023-02-06T16:28:29.254Z,6.35
2023-02-06T16:31:01.738Z,5.90
2023-02-06T16:33:34.413Z,5.97
2023-02-06T16:36:01.755Z,7.68
2023-02-06T16:38:28.660Z,5.10
2023-02-06T16:40:56.421Z,5.78
2023-02-06T16:43:23.520Z,6.35
2023-02-06T16:45:50.493Z,4.15
2023-02-06T16:48:17.722Z,6.20
2023-02-06T16:50:46.670Z,7.85
2023-02-06T16:53:19.944Z,5.93
2023-02-06T16:55:46.955Z,6.82
2023-02-06T16:58:20.023Z,7.60
2023-02-06T17:00:47.929Z,6.18
2023-02-06T17:03:17.357Z,10.95
2023-02-06T17:05:46.386Z,5.57
2023-02-06T17:08:19.011Z,6.40
2023-02-06T17:10:46.949Z,6.95
2023-02-06T17:13:16.143Z,6.10
2023-02-06T17:15:43.772Z,7.97
2023-02-06T17:18:14.059Z,7.55
2023-02-06T17:20:42.529Z,7.05
2023-02-06T17:23:12.823Z,7.63
2023-02-06T17:25:41.564Z,6.07
2023-02-06T17:28:11.822Z,10.93
2023-02-06T17:30:39.073Z,6.97
2023-02-06T17:33:06.995Z,8.38
2023-02-06T17:35:36.656Z,6.13
2023-02-06T17:38:08.979Z,7.50
2023-02-06T17:40:37.626Z,9.65
2023-02-06T17:43:04.872Z,8.30
2023-02-06T17:45:31.905Z,8.07
2023-02-06T17:47:58.751Z,5.85
2023-02-06T17:50:27.365Z,4.88
2023-02-06T17:52:55.785Z,5.25
2023-02-06T17:55:23.902Z,7.05
2023-02-06T17:57:50.924Z,8.73
2023-02-06T18:00:20.668Z,6.22
2023-02-06T18:02:47.508Z,7.78
2023-02-06T18:05:14.353Z,9.55
2023-02-06T18:07:41.212Z,13.63
2023-02-06T18:10:09.100Z,12.13
2023-02-06T18:12:35.937Z,8.88
2023-02-06T18:15:03.478Z,9.43
2023-02-06T18:17:31.239Z,10.23
2023-02-06T18:19:58.250Z,8.60
2023-02-06T18:22:25.076Z,10.13
2023-02-06T18:24:51.824Z,10.77
2023-02-06T18:27:20.373Z,9.75
2023-02-06T18:29:50.397Z,10.07
2023-02-06T18:32:19.440Z,9.98
2023-02-06T18:34:47.011Z,10.40
2023-02-06T18:37:13.921Z,10.88
2023-02-06T18:39:40.756Z,10.05
2023-02-06T18:42:26.079Z,12.77
2023-02-06T18:44:52.771Z,13.07
2023-02-06T18:47:19.820Z,14.10
2023-02-06T18:49:46.817Z,16.48
2023-02-06T18:52:14.083Z,17.17
2023-02-06T18:54:41.005Z,17.17
2023-02-06T18:57:07.978Z,18.30
2023-02-06T18:59:35.738Z,15.18
2023-02-06T19:02:03.007Z,15.65
2023-02-06T19:04:30.107Z,17.13
2023-02-06T19:06:57.161Z,19.85
2023-02-06T19:09:24.090Z,18.88
2023-02-06T19:11:51.162Z,16.73
2023-02-06T19:14:22.512Z,18.70
2023-02-06T19:16:51.084Z,16.70
2023-02-06T19:19:18.511Z,13.85
2023-02-06T19:21:45.652Z,15.98
2023-02-06T19:24:14.625Z,14.40
2023-02-06T19:26:42.068Z,15.48
2023-02-06T19:29:15.067Z,21.42
2023-02-06T19:31:42.925Z,15.40
2023-02-06T19:34:09.843Z,14.82
2023-02-06T19:36:36.613Z,17.77
2023-02-06T19:39:07.313Z,15.38
2023-02-06T19:41:34.652Z,14.93
2023-02-06T19:44:05.738Z,12.73
2023-02-06T19:46:33.420Z,11.10
2023-02-06T19:49:00.760Z,14.07
2023-02-06T19:51:30.764Z,14.13
2023-02-06T19:53:58.856Z,14.55
2023-02-06T19:56:39.910Z,15.00
2023-02-06T19:59:17.953Z,13.63
2023-02-06T20:01:49.985Z,11.70
2023-02-06T20:04:17.167Z,12.20
2023-02-06T20:06:44.931Z,11.07
2023-02-06T20:09:13.954Z,13.10
2023-02-06T20:11:41.968Z,11.07
2023-02-06T20:14:09.642Z,14.10
2023-02-06T20:16:39.431Z,11.05
2023-02-06T20:19:13.251Z,10.38
2023-02-06T20:21:42.081Z,8.95
2023-02-06T20:24:11.918Z,11.45
2023-02-06T20:26:40.322Z,11.77
2023-02-06T20:29:08.774Z,12.15
2023-02-06T20:31:35.996Z,10.32
2023-02-06T20:34:03.729Z,16.60
2023-02-06T20:36:31.107Z,11.77
2023-02-06T20:38:59.836Z,12.30
2023-02-06T20:41:29.689Z,13.13
2023-02-06T20:43:58.268Z,12.15
2023-02-06T20:46:26.363Z,10.95
2023-02-06T20:49:01.836Z,10.68
2023-02-06T20:51:29.701Z,12.77
2023-02-06T20:53:56.769Z,11.30
2023-02-06T20:56:24.501Z,10.90
2023-02-06T20:58:51.388Z,11.55
2023-02-06T21:01:29.748Z,13.27
2023-02-06T21:06:25.798Z,13.48
2023-02-06T21:08:57.223Z,12.38
2023-02-06T21:11:24.251Z,14.25
2023-02-06T21:13:51.079Z,12.30
2023-02-06T21:16:17.811Z,13.82
2023-02-06T21:18:44.530Z,12.02
2023-02-06T21:21:13.949Z,13.10
2023-02-06T21:23:42.720Z,13.82
2023-02-06T21:26:10.960Z,12.25
2023-02-06T21:28:38.518Z,15.10
2023-02-06T21:31:10.357Z,12.77
2023-02-06T21:33:37.115Z,14.25
2023-02-06T21:36:07.006Z,13.65
2023-02-06T21:38:35.214Z,17.48
2023-02-06T21:41:06.909Z,12.35
2023-02-06T21:43:34.160Z,16.63
2023-02-06T21:46:01.869Z,16.08
2023-02-06T21:48:28.726Z,15.48
2023-02-06T21:50:55.388Z,14.93
2023-02-06T21:53:22.782Z,16.52
2023-02-06T21:55:49.498Z,12.32
2023-02-06T21:58:16.633Z,15.52
2023-02-06T22:00:44.974Z,13.40
2023-02-06T22:03:12.219Z,14.63
2023-02-06T22:05:39.327Z,16.27
2023-02-06T22:08:06.473Z,15.02
2023-02-06T22:10:36.676Z,15.75
2023-02-06T22:13:04.643Z,13.95
2023-02-06T22:15:32.035Z,14.15
2023-02-06T22:17:58.922Z,12.55
2023-02-06T22:20:25.601Z,12.70
2023-02-06T22:22:54.145Z,11.07
2023-02-06T22:25:21.617Z,12.35
2023-02-06T22:27:48.320Z,13.25
2023-02-06T22:30:15.171Z,14.88
2023-02-06T22:32:41.898Z,13.95
2023-02-06T22:35:08.931Z,13.13
2023-02-06T22:37:35.744Z,13.93
2023-02-06T22:40:02.522Z,12.70
2023-02-06T22:42:29.174Z,13.95
2023-02-06T22:44:56.175Z,13.38
2023-02-06T22:47:22.944Z,12.80
2023-02-06T22:49:51.973Z,13.65
2023-02-06T22:52:37.170Z,14.02
2023-02-06T22:55:05.740Z,14.38
2023-02-06T22:57:35.167Z,12.80
2023-02-06T23:00:02.051Z,13.30
2023-02-06T23:02:28.776Z,13.80
2023-02-06T23:04:55.483Z,14.88
2023-02-06T23:07:22.136Z,13.40
2023-02-06T23:09:48.782Z,15.27
2023-02-06T23:12:16.199Z,13.00
2023-02-06T23:14:44.485Z,17.15
2023-02-06T23:17:11.413Z,14.90
2023-02-06T23:19:39.478Z,14.63
2023-02-06T23:22:06.387Z,12.82
2023-02-06T23:24:33.049Z,11.45
2023-02-06T23:26:59.758Z,11.35
2023-02-06T23:29:26.440Z,14.93
2023-02-06T23:31:53.742Z,10.95
2023-02-06T23:34:23.690Z,14.88
2023-02-06T23:36:51.960Z,13.77
2023-02-06T23:39:19.067Z,14.15
2023-02-06T23:41:45.847Z,12.05
2023-02-06T23:44:12.616Z,11.75
2023-02-06T23:46:40.376Z,13.40
2023-02-06T23:49:07.611Z,12.63
2023-02-06T23:51:36.340Z,11.48
2023-02-06T23:54:03.187Z,11.00
2023-02-06T23:56:31.661Z,13.00
2023-02-06T23:58:59.831Z,10.95
